Muntgracht — PCJH — position and weather

sailwx.info

Track history (hours):
 
Tides and Currents Weather Stations Pressure Air Temp Water Temp Dewpoint Dewpoint Depression Visibility Wind Speed Wind Dir Waves Ship Positions

Muntgracht

Last reported at 2018-Apr-20 10:23 UTC. Time now 2018-Apr-20 16:47 UTC.
Position N 43°37' W 005°58'.

Length 142 m; draft 6 m.

Type: Cargo ship. MMSI: 246771000.

Date/timePositionNaut miles runAvg speedWind from/ knotsBaromVisibWave heightAir tempDewpointWater temp
2018-Apr-20 10:23N 43°37' W 005°58'513.1
2018-Apr-20 10:00N 43°42' W 005°59'24314.8
2018-Apr-19 17:38N 47°45' W 006°02'913.8
2018-Apr-19 16:58N 47°54' W 006°03'3213.4
2018-Apr-19 14:33N 48°27' W 006°03'1313.3
2018-Apr-19 13:33N 48°40' W 005°58'3913.8
2018-Apr-19 10:43N 49°05' W 005°13'7012.0
2018-Apr-19 04:53N 49°41' W 003°41'1514.4
2018-Apr-19 03:52N 49°49' W 003°22'615.6
2018-Apr-19 03:30N 49°52' W 003°15'916.6
2018-Apr-19 02:59N 49°56' W 003°03'817.1
2018-Apr-19 02:31N 50°00' W 002°52'816.2
2018-Apr-19 02:01N 50°03' W 002°40'816.0
2018-Apr-19 01:30N 50°05' W 002°28'815.2
2018-Apr-19 01:00N 50°07' W 002°16'914.4
2018-Apr-19 00:22N 50°09' W 002°02'513.4
2018-Apr-19 00:00N 50°10' W 001°55'612.5
2018-Apr-18 23:30N 50°12' W 001°45'611.6
2018-Apr-18 23:00N 50°13' W 001°37'510.8
2018-Apr-18 22:30N 50°14' W 001°28'510.3
2018-Apr-18 22:00N 50°16' W 001°21'510.3
2018-Apr-18 21:30N 50°17' W 001°13'510.4
2018-Apr-18 21:00N 50°18' W 001°05'2613.3
2018-Apr-18 19:03N 50°26' W 000°26'115.8
2018-Apr-18 19:00N 50°26' W 000°25'816.3
2018-Apr-18 18:30N 50°28' W 000°12'916.5
2018-Apr-18 17:58N 50°31' E 000°01'816.8
2018-Apr-18 17:30N 50°33' E 000°12'917.0
2018-Apr-18 17:00N 50°36' E 000°25'816.6
2018-Apr-18 16:30N 50°39' E 000°37'816.1
2018-Apr-18 16:00N 50°43' E 000°48'815.4
2018-Apr-18 15:30N 50°47' E 000°58'714.5
2018-Apr-18 15:00N 50°51' E 001°08'1412.9
2018-Apr-18 13:56N 50°60' E 001°25'512.3
2018-Apr-18 13:30N 51°04' E 001°31'612.4
2018-Apr-18 13:00N 51°08' E 001°37'612.9
2018-Apr-18 12:31N 51°13' E 001°45'714.1
2018-Apr-18 12:00N 51°18' E 001°52'815.3
2018-Apr-18 11:31N 51°25' E 001°59'714.8
2018-Apr-18 11:01N 51°22' E 002°10'815.3
2018-Apr-18 10:31N 51°21' E 002°22'816.5
2018-Apr-18 10:00N 51°23' E 002°35'714.9
2018-Apr-18 09:30N 51°22' E 002°47'816.5
2018-Apr-18 09:00N 51°24' E 002°60'815.8
2018-Apr-18 08:30N 51°24' E 003°12'816.9
2018-Apr-18 08:00N 51°25' E 003°26'917.5
2018-Apr-18 07:30N 51°27' E 003°40'3 5.0
2018-Apr-18 06:59N 51°28' E 003°43'0 0.0
2018-Apr-18 06:26N 51°28' E 003°43'0 0.0
2018-Apr-18 05:59N 51°28' E 003°43'0 0.0
2018-Apr-18 05:23N 51°28' E 003°43'0 0.0
2018-Apr-18 04:59N 51°28' E 003°43'0 0.0
2018-Apr-18 04:29N 51°28' E 003°43'0 0.0
2018-Apr-18 03:59N 51°28' E 003°43'0 0.0
2018-Apr-18 03:29N 51°28' E 003°43'0 0.0
2018-Apr-18 02:59N 51°28' E 003°43'0 0.0
2018-Apr-18 02:26N 51°28' E 003°43'0 0.0
2018-Apr-18 01:59N 51°28' E 003°43'0 0.0
2018-Apr-18 01:26N 51°28' E 003°43'0 0.0
2018-Apr-18 00:59N 51°28' E 003°43'0 0.0
2018-Apr-18 00:29N 51°28' E 003°43'0 0.0
2018-Apr-17 23:53N 51°28' E 003°43'0 0.0
2018-Apr-17 23:29N 51°28' E 003°43'0 0.0
2018-Apr-17 22:56N 51°28' E 003°43'0 0.0
2018-Apr-17 22:29N 51°28' E 003°43'0 0.0
2018-Apr-17 21:59N 51°28' E 003°43'0 0.0
2018-Apr-17 21:29N 51°28' E 003°43'0 0.0
2018-Apr-17 20:56N 51°28' E 003°43'0 0.0
2018-Apr-17 20:29N 51°28' E 003°43'0 0.0
2018-Apr-17 19:59N 51°28' E 003°43'0 0.0
2018-Apr-17 19:29N 51°28' E 003°43'0 0.0
2018-Apr-17 18:59N 51°28' E 003°43'0 0.0
2018-Apr-17 18:29N 51°28' E 003°43'0 0.0
2018-Apr-17 17:59N 51°28' E 003°43'0 0.0
2018-Apr-17 17:29N 51°28' E 003°43'0 0.0
2018-Apr-17 16:53N 51°28' E 003°43'0 0.0
2018-Apr-17 16:29N 51°28' E 003°43'0 0.0
2018-Apr-17 15:56N 51°28' E 003°43'0 0.0
2018-Apr-17 15:20N 51°28' E 003°43'0 0.0
2018-Apr-17 14:59N 51°28' E 003°43'0 0.0
2018-Apr-17 14:20N 51°28' E 003°43'0 0.0
2018-Apr-17 13:59N 51°28' E 003°43'0 0.0
2018-Apr-17 13:29N 51°28' E 003°43'0 0.0
2018-Apr-17 12:59N 51°28' E 003°43'0 0.0
2018-Apr-17 12:26N 51°28' E 003°43'0 0.0
2018-Apr-17 11:50N 51°28' E 003°43'0 0.0
2018-Apr-17 11:26N 51°28' E 003°43'0 0.0
2018-Apr-17 10:44N 51°28' E 003°43'0 0.0
2018-Apr-17 10:29N 51°28' E 003°43'0 0.0
2018-Apr-17 09:50N 51°28' E 003°43'0 0.0
2018-Apr-17 09:29N 51°28' E 003°43'0 0.0
2018-Apr-17 08:59N 51°28' E 003°43'0 0.0
2018-Apr-17 08:26N 51°28' E 003°43'0 0.0
2018-Apr-17 07:56N 51°28' E 003°43'0 0.0
2018-Apr-17 07:26N 51°28' E 003°43'0 0.0
2018-Apr-17 06:59N 51°28' E 003°43'0 0.0
2018-Apr-17 06:29N 51°28' E 003°43'0 0.0
2018-Apr-17 05:59N 51°28' E 003°43'0 0.0
2018-Apr-17 05:29N 51°28' E 003°43'0 0.0
2018-Apr-17 04:53N 51°28' E 003°43'0 0.0
2018-Apr-17 04:17N 51°28' E 003°43'0 0.0
2018-Apr-17 03:59N 51°28' E 003°43'0 0.0
2018-Apr-17 03:29N 51°28' E 003°43'0 0.0
2018-Apr-17 02:53N 51°28' E 003°43'0 0.0
2018-Apr-17 02:26N 51°28' E 003°43'0 0.0
2018-Apr-17 01:59N 51°28' E 003°43'0 0.0
2018-Apr-17 01:29N 51°28' E 003°43'0 0.0
2018-Apr-17 00:23N 51°28' E 003°43'0 0.0
2018-Apr-16 23:56N 51°28' E 003°43'0 0.0
2018-Apr-16 23:29N 51°28' E 003°43'0 0.0
2018-Apr-16 22:59N 51°28' E 003°43'0 0.0
2018-Apr-16 22:17N 51°28' E 003°43'0 0.0
2018-Apr-16 21:59N 51°28' E 003°43'0 0.0
2018-Apr-16 21:29N 51°28' E 003°43'0 0.0
2018-Apr-16 20:44N 51°28' E 003°43'0 0.0
2018-Apr-16 20:26N 51°28' E 003°43'0 0.0
2018-Apr-16 19:08N 51°28' E 003°43'0 0.0
2018-Apr-16 18:50N 51°28' E 003°43'0 0.0
2018-Apr-16 18:23N 51°28' E 003°43'0 0.0
2018-Apr-16 17:56N 51°28' E 003°43'0 0.0
2018-Apr-16 17:29N 51°28' E 003°43'0 0.0
2018-Apr-16 16:59N 51°28' E 003°43'0 0.0
2018-Apr-16 16:26N 51°28' E 003°43'0 0.0
2018-Apr-16 15:38N 51°28' E 003°43'0 0.0
2018-Apr-16 15:23N 51°28' E 003°43'0 0.0
2018-Apr-16 14:59N 51°28' E 003°43'0 0.0
2018-Apr-16 14:26N 51°28' E 003°43'0 0.0
2018-Apr-16 13:38N 51°28' E 003°43'0 0.0
2018-Apr-16 13:02N 51°28' E 003°43'0 0.0
2018-Apr-16 12:56N 51°28' E 003°43'0 0.0
2018-Apr-16 12:29N 51°28' E 003°43'0 0.0
2018-Apr-16 11:56N 51°28' E 003°43'0 0.0
2018-Apr-16 11:26N 51°28' E 003°43'0 0.0
2018-Apr-16 10:56N 51°28' E 003°43'0 0.0
2018-Apr-16 10:29N 51°28' E 003°43'0 0.0
2018-Apr-16 09:56N 51°28' E 003°43'0 0.0
2018-Apr-16 09:26N 51°28' E 003°43'0 0.0
2018-Apr-16 08:56N 51°28' E 003°43'0 0.3
2018-Apr-16 08:30N 51°28' E 003°43'2 3.3
2018-Apr-16 08:00N 51°27' E 003°41'4 8.6
2018-Apr-16 07:30N 51°26' E 003°34'611.8
2018-Apr-16 07:00N 51°25' E 003°25'612.4
2018-Apr-16 06:30N 51°24' E 003°15'612.8
2018-Apr-16 06:00N 51°24' E 003°05'714.1
2018-Apr-16 05:30N 51°22' E 002°54'713.7
2018-Apr-16 04:59N 51°21' E 002°43'4 8.1
2018-Apr-16 04:29N 51°22' E 002°36'4 7.9
2018-Apr-16 04:00N 51°22' E 002°30'4 8.3
2018-Apr-16 03:30N 51°20' E 002°24'4 8.4
2018-Apr-16 03:00N 51°18' E 002°18'4 9.1
2018-Apr-16 02:30N 51°16' E 002°12'5 9.2
2018-Apr-16 02:00N 51°14' E 002°06'5 9.7
2018-Apr-16 01:30N 51°12' E 001°59'510.0
2018-Apr-16 01:00N 51°09' E 001°51'510.4
2018-Apr-16 00:30N 51°07' E 001°44'611.1
2018-Apr-16 00:00N 51°03' E 001°38'611.0
2018-Apr-15 23:30N 50°59' E 001°33'5810.4
2018-Apr-15 17:56N 50°23' E 000°21'510.5
2018-Apr-15 17:30N 50°22' E 000°14'510.1
2018-Apr-15 17:00N 50°20' E 000°07'510.4
2018-Apr-15 16:30N 50°19' W 000°01'510.4
2018-Apr-15 16:00N 50°18' W 000°09'510.1
2018-Apr-15 15:29N 50°16' W 000°17'30 9.2
2018-Apr-15 12:14N 50°09' W 001°02'2 9.5
2018-Apr-15 12:00N 50°08' W 001°05'4 9.0
2018-Apr-15 11:30N 50°07' W 001°12'5 9.7
2018-Apr-15 11:00N 50°06' W 001°19'510.8
2018-Apr-15 10:30N 50°04' W 001°27'611.2
2018-Apr-15 10:00N 50°03' W 001°36'611.5
2018-Apr-15 09:30N 50°01' W 001°44'611.4
2018-Apr-15 09:00N 49°60' W 001°53'611.7
2018-Apr-15 08:30N 49°58' W 002°02'40910.9
2018-Apr-13 19:02N 43°42' W 005°59'0 7.3
2018-Apr-13 18:58N 43°42' W 005°59'  
Track history (hours):
 
Tides and Currents Weather Stations Pressure Air Temp Water Temp Dewpoint Dewpoint Depression Visibility Wind Speed Wind Dir Waves Ship Positions

Muntgracht

Last reported at 2018-Apr-20 10:23 UTC. Time now 2018-Apr-20 16:47 UTC.
Position N 43°37' W 005°58'.

Length 142 m; draft 6 m.

Type: Cargo ship. MMSI: 246771000.

Date/timePositionNaut miles runAvg speedWind from/ knotsBaromVisibWave heightAir tempDewpointWater temp
2018-Apr-20 10:23N 43°37' W 005°58'513.1
2018-Apr-20 10:00N 43°42' W 005°59'24314.8
2018-Apr-19 17:38N 47°45' W 006°02'913.8
2018-Apr-19 16:58N 47°54' W 006°03'3213.4
2018-Apr-19 14:33N 48°27' W 006°03'1313.3
2018-Apr-19 13:33N 48°40' W 005°58'3913.8
2018-Apr-19 10:43N 49°05' W 005°13'7012.0
2018-Apr-19 04:53N 49°41' W 003°41'1514.4
2018-Apr-19 03:52N 49°49' W 003°22'615.6
2018-Apr-19 03:30N 49°52' W 003°15'916.6
2018-Apr-19 02:59N 49°56' W 003°03'817.1
2018-Apr-19 02:31N 50°00' W 002°52'816.2
2018-Apr-19 02:01N 50°03' W 002°40'816.0
2018-Apr-19 01:30N 50°05' W 002°28'815.2
2018-Apr-19 01:00N 50°07' W 002°16'914.4
2018-Apr-19 00:22N 50°09' W 002°02'513.4
2018-Apr-19 00:00N 50°10' W 001°55'612.5
2018-Apr-18 23:30N 50°12' W 001°45'611.6
2018-Apr-18 23:00N 50°13' W 001°37'510.8
2018-Apr-18 22:30N 50°14' W 001°28'510.3
2018-Apr-18 22:00N 50°16' W 001°21'510.3
2018-Apr-18 21:30N 50°17' W 001°13'510.4
2018-Apr-18 21:00N 50°18' W 001°05'2613.3
2018-Apr-18 19:03N 50°26' W 000°26'115.8
2018-Apr-18 19:00N 50°26' W 000°25'816.3
2018-Apr-18 18:30N 50°28' W 000°12'916.5
2018-Apr-18 17:58N 50°31' E 000°01'816.8
2018-Apr-18 17:30N 50°33' E 000°12'917.0
2018-Apr-18 17:00N 50°36' E 000°25'816.6
2018-Apr-18 16:30N 50°39' E 000°37'816.1
2018-Apr-18 16:00N 50°43' E 000°48'815.4
2018-Apr-18 15:30N 50°47' E 000°58'714.5
2018-Apr-18 15:00N 50°51' E 001°08'1412.9
2018-Apr-18 13:56N 50°60' E 001°25'512.3
2018-Apr-18 13:30N 51°04' E 001°31'612.4
2018-Apr-18 13:00N 51°08' E 001°37'612.9
2018-Apr-18 12:31N 51°13' E 001°45'714.1
2018-Apr-18 12:00N 51°18' E 001°52'815.3
2018-Apr-18 11:31N 51°25' E 001°59'714.8
2018-Apr-18 11:01N 51°22' E 002°10'815.3
2018-Apr-18 10:31N 51°21' E 002°22'816.5
2018-Apr-18 10:00N 51°23' E 002°35'714.9
2018-Apr-18 09:30N 51°22' E 002°47'816.5
2018-Apr-18 09:00N 51°24' E 002°60'815.8
2018-Apr-18 08:30N 51°24' E 003°12'816.9
2018-Apr-18 08:00N 51°25' E 003°26'917.5
2018-Apr-18 07:30N 51°27' E 003°40'3 5.0
2018-Apr-18 06:59N 51°28' E 003°43'0 0.0
2018-Apr-18 06:26N 51°28' E 003°43'0 0.0
2018-Apr-18 05:59N 51°28' E 003°43'0 0.0
2018-Apr-18 05:23N 51°28' E 003°43'0 0.0
2018-Apr-18 04:59N 51°28' E 003°43'0 0.0
2018-Apr-18 04:29N 51°28' E 003°43'0 0.0
2018-Apr-18 03:59N 51°28' E 003°43'0 0.0
2018-Apr-18 03:29N 51°28' E 003°43'0 0.0
2018-Apr-18 02:59N 51°28' E 003°43'0 0.0
2018-Apr-18 02:26N 51°28' E 003°43'0 0.0
2018-Apr-18 01:59N 51°28' E 003°43'0 0.0
2018-Apr-18 01:26N 51°28' E 003°43'0 0.0
2018-Apr-18 00:59N 51°28' E 003°43'0 0.0
2018-Apr-18 00:29N 51°28' E 003°43'0 0.0
2018-Apr-17 23:53N 51°28' E 003°43'0 0.0
2018-Apr-17 23:29N 51°28' E 003°43'0 0.0
2018-Apr-17 22:56N 51°28' E 003°43'0 0.0
2018-Apr-17 22:29N 51°28' E 003°43'0 0.0
2018-Apr-17 21:59N 51°28' E 003°43'0 0.0
2018-Apr-17 21:29N 51°28' E 003°43'0 0.0
2018-Apr-17 20:56N 51°28' E 003°43'0 0.0
2018-Apr-17 20:29N 51°28' E 003°43'0 0.0
2018-Apr-17 19:59N 51°28' E 003°43'0 0.0
2018-Apr-17 19:29N 51°28' E 003°43'0 0.0
2018-Apr-17 18:59N 51°28' E 003°43'0 0.0
2018-Apr-17 18:29N 51°28' E 003°43'0 0.0
2018-Apr-17 17:59N 51°28' E 003°43'0 0.0
2018-Apr-17 17:29N 51°28' E 003°43'0 0.0
2018-Apr-17 16:53N 51°28' E 003°43'0 0.0
2018-Apr-17 16:29N 51°28' E 003°43'0 0.0
2018-Apr-17 15:56N 51°28' E 003°43'0 0.0
2018-Apr-17 15:20N 51°28' E 003°43'0 0.0
2018-Apr-17 14:59N 51°28' E 003°43'0 0.0
2018-Apr-17 14:20N 51°28' E 003°43'0 0.0
2018-Apr-17 13:59N 51°28' E 003°43'0 0.0
2018-Apr-17 13:29N 51°28' E 003°43'0 0.0
2018-Apr-17 12:59N 51°28' E 003°43'0 0.0
2018-Apr-17 12:26N 51°28' E 003°43'0 0.0
2018-Apr-17 11:50N 51°28' E 003°43'0 0.0
2018-Apr-17 11:26N 51°28' E 003°43'0 0.0
2018-Apr-17 10:44N 51°28' E 003°43'0 0.0
2018-Apr-17 10:29N 51°28' E 003°43'0 0.0
2018-Apr-17 09:50N 51°28' E 003°43'0 0.0
2018-Apr-17 09:29N 51°28' E 003°43'0 0.0
2018-Apr-17 08:59N 51°28' E 003°43'0 0.0
2018-Apr-17 08:26N 51°28' E 003°43'0 0.0
2018-Apr-17 07:56N 51°28' E 003°43'0 0.0
2018-Apr-17 07:26N 51°28' E 003°43'0 0.0
2018-Apr-17 06:59N 51°28' E 003°43'0 0.0
2018-Apr-17 06:29N 51°28' E 003°43'0 0.0
2018-Apr-17 05:59N 51°28' E 003°43'0 0.0
2018-Apr-17 05:29N 51°28' E 003°43'0 0.0
2018-Apr-17 04:53N 51°28' E 003°43'0 0.0
2018-Apr-17 04:17N 51°28' E 003°43'0 0.0
2018-Apr-17 03:59N 51°28' E 003°43'0 0.0
2018-Apr-17 03:29N 51°28' E 003°43'0 0.0
2018-Apr-17 02:53N 51°28' E 003°43'0 0.0
2018-Apr-17 02:26N 51°28' E 003°43'0 0.0
2018-Apr-17 01:59N 51°28' E 003°43'0 0.0
2018-Apr-17 01:29N 51°28' E 003°43'0 0.0
2018-Apr-17 00:23N 51°28' E 003°43'0 0.0
2018-Apr-16 23:56N 51°28' E 003°43'0 0.0
2018-Apr-16 23:29N 51°28' E 003°43'0 0.0
2018-Apr-16 22:59N 51°28' E 003°43'0 0.0
2018-Apr-16 22:17N 51°28' E 003°43'0 0.0
2018-Apr-16 21:59N 51°28' E 003°43'0 0.0
2018-Apr-16 21:29N 51°28' E 003°43'0 0.0
2018-Apr-16 20:44N 51°28' E 003°43'0 0.0
2018-Apr-16 20:26N 51°28' E 003°43'0 0.0
2018-Apr-16 19:08N 51°28' E 003°43'0 0.0
2018-Apr-16 18:50N 51°28' E 003°43'0 0.0
2018-Apr-16 18:23N 51°28' E 003°43'0 0.0
2018-Apr-16 17:56N 51°28' E 003°43'0 0.0
2018-Apr-16 17:29N 51°28' E 003°43'0 0.0
2018-Apr-16 16:59N 51°28' E 003°43'0 0.0
2018-Apr-16 16:26N 51°28' E 003°43'0 0.0
2018-Apr-16 15:38N 51°28' E 003°43'0 0.0
2018-Apr-16 15:23N 51°28' E 003°43'0 0.0
2018-Apr-16 14:59N 51°28' E 003°43'0 0.0
2018-Apr-16 14:26N 51°28' E 003°43'0 0.0
2018-Apr-16 13:38N 51°28' E 003°43'0 0.0
2018-Apr-16 13:02N 51°28' E 003°43'0 0.0
2018-Apr-16 12:56N 51°28' E 003°43'0 0.0
2018-Apr-16 12:29N 51°28' E 003°43'0 0.0
2018-Apr-16 11:56N 51°28' E 003°43'0 0.0
2018-Apr-16 11:26N 51°28' E 003°43'0 0.0
2018-Apr-16 10:56N 51°28' E 003°43'0 0.0
2018-Apr-16 10:29N 51°28' E 003°43'0 0.0
2018-Apr-16 09:56N 51°28' E 003°43'0 0.0
2018-Apr-16 09:26N 51°28' E 003°43'0 0.0
2018-Apr-16 08:56N 51°28' E 003°43'0 0.3
2018-Apr-16 08:30N 51°28' E 003°43'2 3.3
2018-Apr-16 08:00N 51°27' E 003°41'4 8.6
2018-Apr-16 07:30N 51°26' E 003°34'611.8
2018-Apr-16 07:00N 51°25' E 003°25'612.4
2018-Apr-16 06:30N 51°24' E 003°15'612.8
2018-Apr-16 06:00N 51°24' E 003°05'714.1
2018-Apr-16 05:30N 51°22' E 002°54'713.7
2018-Apr-16 04:59N 51°21' E 002°43'4 8.1
2018-Apr-16 04:29N 51°22' E 002°36'4 7.9
2018-Apr-16 04:00N 51°22' E 002°30'4 8.3
2018-Apr-16 03:30N 51°20' E 002°24'4 8.4
2018-Apr-16 03:00N 51°18' E 002°18'4 9.1
2018-Apr-16 02:30N 51°16' E 002°12'5 9.2
2018-Apr-16 02:00N 51°14' E 002°06'5 9.7
2018-Apr-16 01:30N 51°12' E 001°59'510.0
2018-Apr-16 01:00N 51°09' E 001°51'510.4
2018-Apr-16 00:30N 51°07' E 001°44'611.1
2018-Apr-16 00:00N 51°03' E 001°38'611.0
2018-Apr-15 23:30N 50°59' E 001°33'5810.4
2018-Apr-15 17:56N 50°23' E 000°21'510.5
2018-Apr-15 17:30N 50°22' E 000°14'510.1
2018-Apr-15 17:00N 50°20' E 000°07'510.4
2018-Apr-15 16:30N 50°19' W 000°01'510.4
2018-Apr-15 16:00N 50°18' W 000°09'510.1
2018-Apr-15 15:29N 50°16' W 000°17'30 9.2
2018-Apr-15 12:14N 50°09' W 001°02'2 9.5
2018-Apr-15 12:00N 50°08' W 001°05'4 9.0
2018-Apr-15 11:30N 50°07' W 001°12'5 9.7
2018-Apr-15 11:00N 50°06' W 001°19'510.8
2018-Apr-15 10:30N 50°04' W 001°27'611.2
2018-Apr-15 10:00N 50°03' W 001°36'611.5
2018-Apr-15 09:30N 50°01' W 001°44'611.4
2018-Apr-15 09:00N 49°60' W 001°53'611.7
2018-Apr-15 08:30N 49°58' W 002°02'40910.9
2018-Apr-13 19:02N 43°42' W 005°59'0 7.3
2018-Apr-13 18:58N 43°42' W 005°59'  

Dump ship's entire track history